Keystone, Colorado
Current Conditions -  °F | °C
As of 12:15 PM on Thursday 18 Dec 2014 (Local Time) from KCCU Reporting Station
Light Snow Light Snow  
Wind Chill:   Ceiling: 400
Heat Index: 19°   Visibility: 1.2mi
Dew Point: 14°   Wind: 10mph
Humidity: 80%   Direction: 270°W
Pressure: 30.03"   Gusts: NA
Location:  39.6522°N, 106.121°W
Report Text: KCCU 181915Z AUTO 27009KT 1 1/4SM -SN BKN004 OVC012 M07/M10 A3003 RMK AO2
Loading
Personal Weather Stations






























Interactive Weather Map New forecast layout! Learn more

10-Day Weather Forecast

Advertisements
Track Severe Weather on mobile